Time;durP1;ratioP1;P1;durP2;ratioP2;P2;SDS_P1;SDS_P2;PMS_P1;PMS_P2;Temp;Humidity;BMP_temperature;BMP_pressure;BME280_temperature;BME280_humidity;BME280_pressure;Samples;Min_cycle;Max_cycle;Signal;HPM_P1;HPM_P2
2023/08/30 00:01:31;;;;;;;3.50;2.90;;;13.70;99.90;;;;;;5116096;28;20996;-91
2023/08/30 00:03:57;;;;;;;2.80;2.37;;;13.70;99.90;;;;;;5120280;28;20477;-91
2023/08/30 00:06:25;;;;;;;3.13;2.00;;;13.70;99.90;;;;;;5117237;28;20490;-91
2023/08/30 00:08:50;;;;;;;2.80;2.40;;;13.70;99.90;;;;;;5116323;28;20469;-91
2023/08/30 00:11:17;;;;;;;3.77;2.47;;;13.70;99.90;;;;;;5116382;28;20439;-91
2023/08/30 00:13:44;;;;;;;3.03;2.60;;;13.80;99.90;;;;;;5115900;28;20202;-91
2023/08/30 00:16:12;;;;;;;2.77;2.57;;;13.80;99.90;;;;;;5116077;28;20469;-90
2023/08/30 00:18:39;;;;;;;5.30;2.83;;;13.80;99.90;;;;;;5115933;28;20491;-91
2023/08/30 00:21:06;;;;;;;3.00;2.27;;;13.80;99.90;;;;;;5115707;28;20454;-91
2023/08/30 00:23:33;;;;;;;3.30;2.80;;;13.70;99.90;;;;;;5116075;28;20861;-91
2023/08/30 00:26:00;;;;;;;3.43;3.13;;;13.80;99.90;;;;;;5115627;27;20467;-89
2023/08/30 00:28:27;;;;;;;3.00;2.70;;;13.70;99.90;;;;;;5115867;28;20443;-91
2023/08/30 00:30:55;;;;;;;4.33;3.10;;;13.70;99.90;;;;;;5116065;28;20439;-91
2023/08/30 00:33:23;;;;;;;4.30;3.00;;;13.70;99.90;;;;;;5115841;28;20932;-91
2023/08/30 00:35:57;;;;;;;3.77;2.07;;;13.70;99.90;;;;;;5115713;28;20459;-91
2023/08/30 00:38:22;;;;;;;2.63;2.43;;;13.80;99.90;;;;;;5115790;28;20480;-91
2023/08/30 00:40:49;;;;;;;2.50;2.13;;;13.70;99.90;;;;;;5115714;28;20483;-91
2023/08/30 00:43:16;;;;;;;2.60;2.40;;;13.70;99.90;;;;;;5115578;28;20560;-89
2023/08/30 00:45:43;;;;;;;3.57;2.67;;;13.70;99.90;;;;;;5115610;28;20474;-91
2023/08/30 00:48:09;;;;;;;3.00;2.70;;;13.60;99.90;;;;;;5115238;28;20923;-91
2023/08/30 00:50:38;;;;;;;5.13;3.10;;;13.60;99.90;;;;;;5115742;28;20458;-91
2023/08/30 00:53:06;;;;;;;3.83;2.70;;;13.60;99.90;;;;;;5115649;28;20440;-91
2023/08/30 00:55:34;;;;;;;5.53;3.83;;;13.50;99.90;;;;;;5115550;28;20489;-92
2023/08/30 00:58:01;;;;;;;3.13;2.60;;;13.50;99.90;;;;;;5114853;28;20924;-92
2023/08/30 01:00:29;;;;;;;4.50;3.33;;;13.50;99.90;;;;;;5115436;28;20556;-92
2023/08/30 01:02:56;;;;;;;3.53;3.23;;;13.40;99.90;;;;;;5115599;28;20944;-91
2023/08/30 01:05:23;;;;;;;4.00;2.63;;;13.40;99.90;;;;;;5114956;28;20489;-87
2023/08/30 01:07:51;;;;;;;4.87;3.17;;;13.40;99.90;;;;;;5115519;28;20439;-91
2023/08/30 01:10:19;;;;;;;3.40;2.33;;;13.40;99.90;;;;;;5115384;28;20454;-90
2023/08/30 01:12:49;;;;;;;5.77;3.90;;;13.30;99.90;;;;;;5115267;28;20442;-91
2023/08/30 01:15:19;;;;;;;5.33;3.80;;;13.40;99.90;;;;;;5115431;28;20448;-90
2023/08/30 01:17:48;;;;;;;4.83;3.63;;;13.40;99.90;;;;;;5114893;28;20940;-91
2023/08/30 01:20:18;;;;;;;3.83;2.80;;;13.40;99.90;;;;;;5115035;28;20475;-90
2023/08/30 01:22:58;;;;;;;5.30;3.57;;;13.30;99.90;;;;;;5115175;28;20461;-90
2023/08/30 01:25:37;;;;;;;5.97;3.47;;;13.40;99.90;;;;;;5115166;28;20466;-90
2023/08/30 01:28:05;;;;;;;5.13;3.23;;;13.40;99.90;;;;;;5114819;28;20451;-91
2023/08/30 01:30:34;;;;;;;5.20;3.80;;;13.30;99.90;;;;;;5114893;28;20526;-91
2023/08/30 01:33:02;;;;;;;5.13;3.57;;;13.30;99.90;;;;;;5114741;28;20447;-91
2023/08/30 01:35:32;;;;;;;3.77;3.00;;;13.20;99.90;;;;;;5114675;28;21007;-91
2023/08/30 01:38:00;;;;;;;2.73;2.50;;;13.20;99.90;;;;;;5114908;28;20439;-91
2023/08/30 01:40:31;;;;;;;5.00;3.60;;;13.30;99.90;;;;;;5114761;28;20524;-91
2023/08/30 01:42:59;;;;;;;4.37;3.30;;;13.40;99.90;;;;;;5115443;28;20449;-91
2023/08/30 01:45:29;;;;;;;5.47;3.73;;;13.40;99.90;;;;;;5114830;28;20465;-91
2023/08/30 01:47:58;;;;;;;4.07;2.90;;;13.30;99.90;;;;;;5115575;28;20435;-90
2023/08/30 01:50:25;;;;;;;5.07;3.10;;;13.30;99.90;;;;;;5114846;28;20484;-91
2023/08/30 01:52:53;;;;;;;6.00;3.27;;;13.20;99.90;;;;;;5114749;28;20440;-90
2023/08/30 01:55:22;;;;;;;7.30;3.60;;;13.30;99.90;;;;;;5114401;28;20467;-91
2023/08/30 01:57:49;;;;;;;4.00;2.63;;;13.20;99.90;;;;;;5114830;28;20443;-91
2023/08/30 02:00:16;;;;;;;4.60;3.33;;;13.30;99.90;;;;;;5114533;28;20898;-91
2023/08/30 02:02:44;;;;;;;4.50;2.53;;;13.30;99.90;;;;;;5114637;28;20439;-90
2023/08/30 02:05:12;;;;;;;4.83;3.00;;;13.30;99.90;;;;;;5114378;28;20474;-90
2023/08/30 02:07:48;;;;;;;3.40;2.63;;;13.30;99.90;;;;;;5114623;28;20451;-91
2023/08/30 02:10:19;;;;;;;2.50;2.20;;;13.30;99.90;;;;;;5118156;28;20428;-90
2023/08/30 02:12:49;;;;;;;4.80;3.20;;;13.40;99.90;;;;;;5118847;28;20489;-91
2023/08/30 02:15:18;;;;;;;4.73;3.20;;;13.30;99.90;;;;;;5118540;28;20466;-90
2023/08/30 02:17:47;;;;;;;3.43;2.67;;;13.30;99.90;;;;;;5118591;28;20465;-90
2023/08/30 02:20:14;;;;;;;3.03;2.30;;;13.30;99.90;;;;;;5121804;27;21007;-90
2023/08/30 02:22:41;;;;;;;5.90;3.20;;;13.30;99.90;;;;;;5119461;28;20442;-90
2023/08/30 02:25:08;;;;;;;4.60;3.00;;;13.30;99.90;;;;;;5118653;28;20984;-91
2023/08/30 02:27:35;;;;;;;5.63;3.23;;;13.30;99.90;;;;;;5118360;28;20464;-90
2023/08/30 02:30:02;;;;;;;4.40;3.03;;;13.30;99.90;;;;;;5118426;28;20439;-90
2023/08/30 02:32:29;;;;;;;2.90;2.23;;;13.20;99.90;;;;;;5118068;28;20435;-91
2023/08/30 02:34:58;;;;;;;5.00;3.50;;;13.20;99.90;;;;;;5118311;28;20445;-90
2023/08/30 02:37:24;;;;;;;5.60;3.47;;;13.20;99.90;;;;;;5118466;28;20439;-90
2023/08/30 02:39:51;;;;;;;7.70;4.17;;;13.10;99.90;;;;;;5118937;28;20482;-90
2023/08/30 02:42:18;;;;;;;4.13;3.23;;;13.10;99.90;;;;;;5118158;28;20434;-90
2023/08/30 02:44:45;;;;;;;4.07;2.67;;;13.10;99.90;;;;;;5118178;28;20451;-90
2023/08/30 02:47:11;;;;;;;5.60;3.33;;;13.00;99.90;;;;;;5118134;27;20434;-90
2023/08/30 02:49:38;;;;;;;5.40;3.20;;;13.10;99.90;;;;;;5118180;28;20442;-89
2023/08/30 02:52:07;;;;;;;3.87;2.33;;;13.00;99.90;;;;;;5117747;28;20431;-90
2023/08/30 02:54:33;;;;;;;4.37;2.60;;;13.00;99.90;;;;;;5117798;28;20462;-90
2023/08/30 02:57:01;;;;;;;4.23;2.83;;;13.00;99.90;;;;;;5117614;28;21013;-89
2023/08/30 02:59:27;;;;;;;8.43;3.40;;;13.20;99.90;;;;;;5117776;28;20439;-90
2023/08/30 03:01:54;;;;;;;6.27;3.37;;;12.90;99.90;;;;;;5117537;28;20482;-90
2023/08/30 03:04:21;;;;;;;6.43;3.60;;;12.90;99.90;;;;;;5117187;28;20506;-90
2023/08/30 03:06:48;;;;;;;2.60;2.30;;;13.00;99.90;;;;;;5117465;28;20459;-89
2023/08/30 03:09:16;;;;;;;5.57;3.87;;;12.90;99.90;;;;;;5117502;28;20443;-90
2023/08/30 03:11:43;;;;;;;3.30;2.90;;;13.00;99.90;;;;;;5117478;28;20427;-90
2023/08/30 03:14:09;;;;;;;4.53;3.50;;;12.80;99.90;;;;;;5117460;28;20962;-90
2023/08/30 03:16:36;;;;;;;4.60;3.00;;;12.90;99.90;;;;;;5117318;28;20459;-90
2023/08/30 03:19:03;;;;;;;3.70;2.80;;;12.90;99.90;;;;;;5117362;28;20454;-89
2023/08/30 03:21:30;;;;;;;2.23;1.87;;;12.90;99.90;;;;;;5116189;28;20482;-90
2023/08/30 03:23:57;;;;;;;3.40;2.20;;;12.90;99.90;;;;;;5117263;27;20443;-90
2023/08/30 03:26:25;;;;;;;2.73;2.33;;;13.00;99.90;;;;;;5116990;28;20447;-90
2023/08/30 03:28:51;;;;;;;7.17;3.43;;;13.00;99.90;;;;;;5117148;28;20958;-90
2023/08/30 03:31:20;;;;;;;3.67;2.20;;;13.00;99.90;;;;;;5116808;28;20439;-90
2023/08/30 03:33:47;;;;;;;3.30;2.43;;;13.00;99.90;;;;;;5117047;28;20449;-90
2023/08/30 03:36:15;;;;;;;4.50;2.63;;;12.90;99.90;;;;;;5116808;28;20833;-90
2023/08/30 03:38:43;;;;;;;3.03;2.20;;;13.00;99.90;;;;;;5116987;27;20508;-90
2023/08/30 03:41:11;;;;;;;5.23;3.10;;;13.00;99.90;;;;;;5116837;27;20481;-90
2023/08/30 03:43:39;;;;;;;3.90;2.53;;;12.90;99.90;;;;;;5116854;28;20451;-90
2023/08/30 03:46:06;;;;;;;2.20;2.03;;;12.90;99.90;;;;;;5116367;28;20975;-90
2023/08/30 03:48:33;;;;;;;4.00;2.70;;;12.90;99.90;;;;;;5116237;28;20928;-90
2023/08/30 03:51:00;;;;;;;4.77;3.10;;;13.00;99.90;;;;;;5117106;28;20447;-90
2023/08/30 03:53:26;;;;;;;3.20;2.30;;;13.10;99.90;;;;;;5116726;28;20454;-90
2023/08/30 03:55:53;;;;;;;2.63;2.43;;;13.00;99.90;;;;;;5116971;27;20459;-90
2023/08/30 03:58:20;;;;;;;6.03;3.17;;;13.00;99.90;;;;;;5116442;28;20447;-90
2023/08/30 04:00:49;;;;;;;3.83;2.80;;;13.00;99.90;;;;;;5116325;28;20479;-90
2023/08/30 04:03:16;;;;;;;4.57;2.73;;;12.90;99.90;;;;;;5116351;28;20438;-90
2023/08/30 04:05:43;;;;;;;3.93;2.90;;;12.80;99.90;;;;;;5116489;28;20463;-91
2023/08/30 04:08:10;;;;;;;3.57;2.07;;;12.70;99.90;;;;;;5116255;28;20429;-90
2023/08/30 04:10:37;;;;;;;3.03;2.73;;;12.70;99.90;;;;;;5116444;28;21000;-91
2023/08/30 04:13:04;;;;;;;6.60;3.00;;;12.70;99.90;;;;;;5116439;28;20813;-90
2023/08/30 04:15:33;;;;;;;2.87;2.40;;;12.70;99.90;;;;;;5116063;28;20471;-90
2023/08/30 04:18:01;;;;;;;3.87;3.17;;;12.70;99.90;;;;;;5116014;28;20508;-90
2023/08/30 04:20:28;;;;;;;4.93;3.00;;;12.70;99.90;;;;;;5116484;28;20474;-90
2023/08/30 04:22:56;;;;;;;3.40;2.50;;;12.80;99.90;;;;;;5116254;28;20960;-91
2023/08/30 04:25:23;;;;;;;2.63;2.03;;;12.80;99.90;;;;;;5115786;28;20467;-90
2023/08/30 04:27:50;;;;;;;3.03;2.70;;;12.80;99.90;;;;;;5115837;28;20814;-90
2023/08/30 04:30:17;;;;;;;6.27;2.63;;;12.90;99.90;;;;;;5115961;28;20435;-90
2023/08/30 04:32:44;;;;;;;2.60;2.40;;;12.80;99.90;;;;;;5115410;28;20443;-92
2023/08/30 04:35:12;;;;;;;8.63;2.57;;;12.90;99.90;;;;;;5115759;28;20485;-90
2023/08/30 04:37:39;;;;;;;4.00;2.60;;;12.90;99.90;;;;;;5115927;28;20439;-90
2023/08/30 04:40:07;;;;;;;10.80;2.40;;;12.90;99.90;;;;;;5115466;28;20928;-90
2023/08/30 04:42:34;;;;;;;6.93;4.00;;;12.90;99.90;;;;;;5115772;28;20443;-90
2023/08/30 04:45:01;;;;;;;3.50;2.77;;;12.90;99.90;;;;;;5115747;28;20975;-90
2023/08/30 04:47:29;;;;;;;2.30;2.10;;;12.80;99.90;;;;;;5115525;28;20479;-90
2023/08/30 04:49:56;;;;;;;4.73;2.33;;;12.80;99.90;;;;;;5115250;28;20443;-91
2023/08/30 04:52:24;;;;;;;4.07;3.07;;;12.80;99.90;;;;;;5115717;28;20436;-90
2023/08/30 04:54:50;;;;;;;5.50;3.67;;;12.90;99.90;;;;;;5115011;28;20431;-90
2023/08/30 04:57:18;;;;;;;5.23;3.03;;;12.90;99.90;;;;;;5115489;28;20451;-90
2023/08/30 04:59:45;;;;;;;4.13;3.20;;;12.90;99.90;;;;;;5115544;28;20435;-90
2023/08/30 05:02:12;;;;;;;5.40;2.67;;;12.90;99.90;;;;;;5115703;28;20489;-89
2023/08/30 05:04:39;;;;;;;3.77;2.57;;;12.90;99.90;;;;;;5114910;28;20471;-90
2023/08/30 05:07:06;;;;;;;4.97;2.97;;;12.90;99.90;;;;;;5115541;28;20439;-90
2023/08/30 05:09:34;;;;;;;4.60;2.57;;;12.90;99.90;;;;;;5124346;28;20420;-89
2023/08/30 05:12:02;;;;;;;5.13;2.73;;;12.90;99.90;;;;;;5115222;28;20463;-91
2023/08/30 05:14:28;;;;;;;2.77;2.23;;;12.90;99.90;;;;;;5115210;28;20492;-90
2023/08/30 05:16:55;;;;;;;4.13;2.83;;;12.90;99.90;;;;;;5115423;28;20463;-90
2023/08/30 05:19:22;;;;;;;2.93;2.27;;;13.00;99.90;;;;;;5115099;28;20435;-90
2023/08/30 05:21:51;;;;;;;4.43;2.77;;;12.90;99.90;;;;;;5115023;28;20486;-90
2023/08/30 05:24:18;;;;;;;5.43;2.97;;;13.00;99.90;;;;;;5115107;28;20482;-90
2023/08/30 05:26:46;;;;;;;3.10;2.80;;;13.10;99.90;;;;;;5115075;28;20463;-90
2023/08/30 05:29:13;;;;;;;5.23;2.17;;;13.00;99.90;;;;;;5114993;28;20450;-90
2023/08/30 05:31:40;;;;;;;2.60;2.40;;;13.00;99.90;;;;;;5115012;28;20435;-90
2023/08/30 05:34:07;;;;;;;3.10;2.67;;;13.20;99.90;;;;;;5115495;28;20446;-89
2023/08/30 05:36:33;;;;;;;2.63;2.40;;;13.00;99.90;;;;;;5115555;28;20470;-90
2023/08/30 05:39:00;;;;;;;6.17;3.10;;;13.10;99.90;;;;;;5115089;28;20442;-90
2023/08/30 05:41:27;;;;;;;3.67;2.70;;;13.00;99.90;;;;;;5114630;28;20483;-90
2023/08/30 05:43:55;;;;;;;2.60;2.40;;;13.00;99.90;;;;;;5116026;28;20439;-89
2023/08/30 05:46:22;;;;;;;5.40;3.03;;;13.10;99.90;;;;;;5119046;28;20468;-90
2023/08/30 05:48:49;;;;;;;4.13;2.20;;;13.10;99.90;;;;;;5119479;28;20923;-90
2023/08/30 05:51:16;;;;;;;5.90;3.40;;;13.10;99.90;;;;;;5119081;28;20484;-90
2023/08/30 05:53:42;;;;;;;4.03;3.17;;;13.00;99.90;;;;;;5119181;28;20443;-90
2023/08/30 05:56:09;;;;;;;4.17;2.20;;;13.10;99.90;;;;;;5119059;28;20855;-90
2023/08/30 05:58:37;;;;;;;3.23;2.93;;;13.20;99.90;;;;;;5118474;28;20459;-87
2023/08/30 06:01:07;;;;;;;3.63;2.27;;;13.20;99.90;;;;;;5117792;28;20475;-87
2023/08/30 06:03:34;;;;;;;4.90;3.47;;;13.20;99.90;;;;;;5117660;28;20486;-87
2023/08/30 06:06:01;;;;;;;3.90;2.40;;;13.30;99.90;;;;;;5117409;28;20975;-87
2023/08/30 06:08:28;;;;;;;4.13;2.93;;;13.30;99.90;;;;;;5117687;28;20453;-87
2023/08/30 06:10:54;;;;;;;2.43;2.23;;;13.30;99.90;;;;;;5117431;28;20438;-87
2023/08/30 06:13:21;;;;;;;2.87;2.43;;;13.30;99.90;;;;;;5117761;28;20466;-87
2023/08/30 06:15:51;;;;;;;2.80;2.40;;;13.30;99.90;;;;;;5117638;28;20462;-88
2023/08/30 06:18:19;;;;;;;5.93;3.20;;;13.30;99.90;;;;;;5117372;28;20443;-87
2023/08/30 06:20:46;;;;;;;2.20;2.00;;;13.30;99.90;;;;;;5117585;28;20434;-85
2023/08/30 06:23:15;;;;;;;5.10;2.20;;;13.30;99.90;;;;;;5117598;28;20435;-87
2023/08/30 06:25:42;;;;;;;6.40;2.83;;;13.20;99.90;;;;;;5117431;28;20870;-87
2023/08/30 06:28:09;;;;;;;6.00;2.30;;;13.30;99.90;;;;;;5117472;28;20817;-87
2023/08/30 06:30:37;;;;;;;3.57;2.00;;;13.40;99.90;;;;;;5117380;28;20812;-87
2023/08/30 06:33:05;;;;;;;3.33;2.93;;;13.50;99.90;;;;;;5117320;28;20446;-87
2023/08/30 06:35:33;;;;;;;6.43;2.30;;;13.50;99.90;;;;;;5117202;28;21007;-87
2023/08/30 06:38:00;;;;;;;2.77;2.17;;;13.40;99.90;;;;;;5117313;28;20438;-87
2023/08/30 06:40:26;;;;;;;7.27;3.60;;;13.50;99.90;;;;;;5117267;28;20438;-86
2023/08/30 06:42:53;;;;;;;4.17;2.50;;;13.50;99.90;;;;;;5117412;28;20482;-87
2023/08/30 06:45:20;;;;;;;2.40;2.20;;;13.50;99.90;;;;;;5117046;28;20469;-87
2023/08/30 06:47:48;;;;;;;3.47;2.27;;;13.50;99.90;;;;;;5117294;28;20438;-88
2023/08/30 06:50:15;;;;;;;3.00;2.00;;;13.50;99.90;;;;;;5116867;28;20457;-88
2023/08/30 06:52:43;;;;;;;2.40;2.20;;;13.50;99.90;;;;;;5116827;28;20538;-87
2023/08/30 06:55:10;;;;;;;2.63;1.97;;;13.50;99.90;;;;;;5115351;28;21010;-88
2023/08/30 06:57:37;;;;;;;3.37;2.13;;;13.30;99.90;;;;;;5117076;28;20446;-88
2023/08/30 07:00:07;;;;;;;3.80;2.17;;;13.30;99.90;;;;;;5116924;28;20443;-88
2023/08/30 07:02:35;;;;;;;1.83;1.60;;;13.30;99.90;;;;;;5116994;28;20479;-87
2023/08/30 07:05:04;;;;;;;3.77;2.00;;;13.40;99.90;;;;;;5116662;28;20483;-87
2023/08/30 07:07:30;;;;;;;2.00;1.80;;;13.50;99.90;;;;;;5116859;28;20450;-88
2023/08/30 07:09:59;;;;;;;2.80;1.73;;;13.60;99.90;;;;;;5117167;28;20439;-88
2023/08/30 07:12:26;;;;;;;5.83;3.17;;;13.60;99.90;;;;;;5116838;28;20427;-88
2023/08/30 07:14:53;;;;;;;2.50;2.07;;;13.70;99.90;;;;;;5116701;28;20439;-88
2023/08/30 07:17:20;;;;;;;1.83;1.73;;;13.70;99.90;;;;;;5117214;28;20445;-88
2023/08/30 07:19:47;;;;;;;2.93;2.27;;;13.60;99.90;;;;;;5116902;28;20446;-88
2023/08/30 07:22:16;;;;;;;3.27;2.20;;;13.60;99.90;;;;;;5116678;28;20512;-88
2023/08/30 07:24:42;;;;;;;4.00;2.77;;;13.60;99.90;;;;;;5116686;28;20836;-88
2023/08/30 07:27:11;;;;;;;4.60;3.00;;;13.60;99.90;;;;;;5116726;28;20443;-89
2023/08/30 07:29:37;;;;;;;2.47;2.27;;;13.60;99.90;;;;;;5116643;28;20806;-88
2023/08/30 07:32:05;;;;;;;2.10;2.00;;;13.70;99.90;;;;;;5116506;28;20439;-88
2023/08/30 07:34:32;;;;;;;4.73;2.10;;;13.70;99.90;;;;;;5116670;28;20447;-88
2023/08/30 07:36:58;;;;;;;2.20;2.10;;;13.70;99.90;;;;;;5116339;28;20474;-88
2023/08/30 07:39:25;;;;;;;3.87;2.50;;;13.70;99.90;;;;;;5116522;28;20444;-87
2023/08/30 07:41:52;;;;;;;3.83;1.97;;;13.80;99.90;;;;;;5116280;28;20479;-88
2023/08/30 07:44:20;;;;;;;5.70;2.33;;;13.80;99.90;;;;;;5116282;28;20443;-90
2023/08/30 07:46:48;;;;;;;2.30;2.20;;;13.90;99.90;;;;;;5116307;28;20512;-88
2023/08/30 07:49:14;;;;;;;3.63;2.50;;;13.90;99.90;;;;;;5116125;28;20448;-88
2023/08/30 07:51:41;;;;;;;2.87;2.60;;;14.10;99.90;;;;;;5115715;28;20959;-88
2023/08/30 07:54:09;;;;;;;1.93;1.73;;;13.90;99.90;;;;;;5115718;28;20443;-88
2023/08/30 07:56:35;;;;;;;4.10;2.60;;;14.00;99.90;;;;;;5115876;28;20971;-88
2023/08/30 07:59:02;;;;;;;3.90;2.90;;;14.00;99.90;;;;;;5115778;28;20443;-88
2023/08/30 08:01:30;;;;;;;3.40;3.07;;;14.10;99.90;;;;;;5115852;28;20490;-88
2023/08/30 08:03:57;;;;;;;1.43;1.33;;;14.00;99.90;;;;;;5115795;28;20844;-88
2023/08/30 08:06:24;;;;;;;3.90;2.73;;;14.10;99.90;;;;;;5115182;28;20474;-88
2023/08/30 08:08:50;;;;;;;3.23;2.50;;;14.20;99.90;;;;;;5115808;28;20443;-88
2023/08/30 08:11:18;;;;;;;8.03;3.63;;;14.20;99.90;;;;;;5115925;28;20441;-88
2023/08/30 08:13:44;;;;;;;2.63;2.40;;;14.20;99.90;;;;;;5115857;27;20439;-89
2023/08/30 08:16:11;;;;;;;2.80;1.80;;;14.40;99.90;;;;;;5115661;28;20459;-88
2023/08/30 08:18:39;;;;;;;2.43;1.93;;;14.40;99.90;;;;;;5115418;27;20927;-89
2023/08/30 08:21:06;;;;;;;4.90;3.13;;;14.50;99.90;;;;;;5115219;28;20936;-88
2023/08/30 08:23:33;;;;;;;2.60;1.90;;;14.60;99.90;;;;;;5115313;28;20478;-88
2023/08/30 08:25:59;;;;;;;3.17;2.20;;;14.80;99.90;;;;;;5115538;28;20469;-89
2023/08/30 08:28:26;;;;;;;3.30;2.30;;;14.80;99.90;;;;;;5115477;28;20837;-89
2023/08/30 08:30:53;;;;;;;2.23;2.13;;;14.80;99.90;;;;;;5116029;28;20442;-89
2023/08/30 08:33:22;;;;;;;2.37;2.13;;;14.90;99.90;;;;;;5115297;28;20820;-87
2023/08/30 08:35:50;;;;;;;2.00;1.83;;;15.10;99.90;;;;;;5115434;28;20463;-88
2023/08/30 08:38:17;;;;;;;4.20;2.80;;;15.20;99.90;;;;;;5114787;28;20446;-87
2023/08/30 08:40:44;;;;;;;2.63;1.93;;;15.20;99.90;;;;;;5115210;28;20435;-88
2023/08/30 08:43:12;;;;;;;2.73;2.53;;;15.30;99.90;;;;;;5115162;28;20474;-89
2023/08/30 08:45:39;;;;;;;2.60;1.87;;;15.40;99.90;;;;;;5114910;27;20466;-89
2023/08/30 08:48:07;;;;;;;1.90;1.80;;;15.50;99.90;;;;;;5114719;28;21037;-88
2023/08/30 08:50:34;;;;;;;3.60;2.53;;;15.60;99.90;;;;;;5114931;28;20548;-86
2023/08/30 08:53:03;;;;;;;3.20;2.43;;;15.80;99.90;;;;;;5114592;28;20977;-85
2023/08/30 08:55:31;;;;;;;2.90;1.67;;;15.90;99.90;;;;;;5115246;28;20840;-89
2023/08/30 08:57:59;;;;;;;3.33;2.27;;;15.90;99.90;;;;;;5115109;28;20451;-88
2023/08/30 09:00:26;;;;;;;3.13;2.90;;;15.90;99.90;;;;;;5115261;28;20477;-89
2023/08/30 09:02:55;;;;;;;4.37;2.37;;;15.90;99.90;;;;;;5115086;28;20482;-90
2023/08/30 09:05:22;;;;;;;3.50;2.37;;;16.00;99.90;;;;;;5114686;28;20475;-90
2023/08/30 09:07:53;;;;;;;2.73;2.00;;;16.00;99.90;;;;;;5115206;28;20453;-88
2023/08/30 09:10:21;;;;;;;2.40;2.20;;;15.70;99.90;;;;;;5115244;28;20777;-89
2023/08/30 09:12:48;;;;;;;2.40;2.20;;;15.70;99.90;;;;;;5115172;28;20950;-90
2023/08/30 09:15:15;;;;;;;2.80;2.23;;;15.70;99.90;;;;;;5115017;28;20454;-88
2023/08/30 09:17:42;;;;;;;2.90;2.67;;;15.80;99.90;;;;;;5114506;28;20496;-89
2023/08/30 09:20:10;;;;;;;3.70;2.50;;;15.90;99.90;;;;;;5115059;28;20447;-90
2023/08/30 09:22:38;;;;;;;2.50;2.23;;;16.00;99.90;;;;;;5114960;28;20822;-90
2023/08/30 09:25:06;;;;;;;4.43;2.37;;;16.20;99.90;;;;;;5114835;28;20485;-89
2023/08/30 09:27:34;;;;;;;2.20;2.00;;;16.30;99.90;;;;;;5114798;28;20475;-90
2023/08/30 09:30:01;;;;;;;3.57;2.00;;;16.40;99.90;;;;;;5114590;28;20439;-84
2023/08/30 09:32:28;;;;;;;2.00;1.77;;;16.70;99.90;;;;;;5114625;28;20443;-88
2023/08/30 09:34:55;;;;;;;5.10;2.33;;;16.80;99.90;;;;;;5114716;28;20439;-89
2023/08/30 09:37:22;;;;;;;2.30;2.00;;;16.90;99.90;;;;;;5114254;28;20936;-89
2023/08/30 09:39:52;;;;;;;2.13;1.87;;;17.00;99.90;;;;;;5123471;28;20544;-89
2023/08/30 09:42:19;;;;;;;2.13;1.93;;;17.30;99.90;;;;;;5114678;28;20475;-89
2023/08/30 09:44:47;;;;;;;2.93;1.73;;;17.50;99.90;;;;;;5114294;28;20943;-90
2023/08/30 09:47:14;;;;;;;1.50;1.40;;;17.60;99.90;;;;;;5114778;28;20542;-89
2023/08/30 09:49:45;;;;;;;7.60;1.67;;;17.80;99.90;;;;;;5114560;28;20492;-89
2023/08/30 09:52:15;;;;;;;1.43;1.33;;;18.00;99.90;;;;;;5114544;28;20439;-88
2023/08/30 09:54:43;;;;;;;1.60;1.50;;;18.10;99.90;;;;;;5114741;28;20443;-89
2023/08/30 09:57:11;;;;;;;2.80;2.07;;;18.30;99.90;;;;;;5114458;28;20496;-88
2023/08/30 09:59:39;;;;;;;2.93;1.63;;;18.30;99.90;;;;;;5114405;28;20932;-89
2023/08/30 10:02:09;;;;;;;1.50;1.30;;;18.40;99.90;;;;;;5114332;28;20482;-89
2023/08/30 10:04:39;;;;;;;1.87;1.77;;;18.60;99.90;;;;;;5113906;28;20470;-88
2023/08/30 10:07:08;;;;;;;2.63;1.60;;;18.70;99.90;;;;;;5113973;28;20927;-88
2023/08/30 10:09:34;;;;;;;1.43;1.33;;;18.70;99.90;;;;;;5113711;28;20447;-88
2023/08/30 10:12:04;;;;;;;3.00;2.27;;;18.70;99.90;;;;;;5114258;28;20530;-88
2023/08/30 10:14:31;;;;;;;1.90;1.80;;;18.70;99.90;;;;;;5113954;28;20435;-88
2023/08/30 10:17:03;;;;;;;1.27;1.20;;;18.70;99.90;;;;;;5113684;28;20462;-88
2023/08/30 10:19:33;;;;;;;2.00;1.90;;;18.50;99.90;;;;;;5114089;28;20419;-88
2023/08/30 10:22:04;;;;;;;1.73;1.63;;;18.40;99.90;;;;;;5114315;28;20448;-88
2023/08/30 10:24:33;;;;;;;1.20;1.10;;;18.30;99.90;;;;;;5113841;28;20423;-88
2023/08/30 10:27:03;;;;;;;2.10;1.30;;;18.40;99.90;;;;;;5113364;28;20975;-88
2023/08/30 10:29:33;;;;;;;1.70;1.60;;;18.60;99.90;;;;;;5114392;28;20432;-90
2023/08/30 10:32:04;;;;;;;1.97;1.60;;;18.70;99.90;;;;;;5117897;28;20458;-89
2023/08/30 10:34:35;;;;;;;2.40;1.30;;;18.80;99.90;;;;;;5118151;27;20435;-88
2023/08/30 10:37:03;;;;;;;4.97;1.63;;;18.80;99.90;;;;;;5117287;28;21052;-89
2023/08/30 10:39:36;;;;;;;1.53;1.07;;;18.80;99.90;;;;;;5117673;28;20442;-86
2023/08/30 10:42:09;;;;;;;1.20;1.20;;;19.00;99.90;;;;;;5117305;28;20427;-88
2023/08/30 10:44:47;;;;;;;2.00;1.90;;;18.90;99.90;;;;;;5117416;28;20899;-88
2023/08/30 10:47:19;;;;;;;1.30;1.20;;;18.70;99.90;;;;;;5117409;28;20931;-88
2023/08/30 10:49:49;;;;;;;1.50;1.40;;;18.80;99.90;;;;;;5117628;28;20430;-88
2023/08/30 10:52:16;;;;;;;1.93;1.83;;;19.10;99.90;;;;;;5117087;28;20445;-87
2023/08/30 10:54:43;;;;;;;1.87;1.53;;;19.20;99.90;;;;;;5116890;28;20439;-87
2023/08/30 10:57:15;;;;;;;2.10;1.90;;;19.20;99.90;;;;;;5117469;28;20443;-89
2023/08/30 10:59:48;;;;;;;1.90;1.80;;;19.50;99.90;;;;;;5117408;28;20435;-89
2023/08/30 11:02:15;;;;;;;1.87;1.63;;;19.50;99.90;;;;;;5116905;28;20430;-89
2023/08/30 11:04:43;;;;;;;1.40;1.30;;;19.50;99.90;;;;;;5116849;28;21040;-89
2023/08/30 11:07:12;;;;;;;2.00;1.70;;;19.70;99.90;;;;;;5116867;28;20449;-89
2023/08/30 11:09:41;;;;;;;1.03;0.93;;;19.80;99.90;;;;;;5117019;27;20445;-89
2023/08/30 11:12:07;;;;;;;1.47;0.97;;;19.80;99.90;;;;;;5117458;28;20454;-88
2023/08/30 11:14:34;;;;;;;1.40;1.30;;;19.80;99.90;;;;;;5116873;27;20450;-88
2023/08/30 11:17:01;;;;;;;1.20;1.10;;;19.80;99.90;;;;;;5116856;28;20803;-88
2023/08/30 11:19:31;;;;;;;1.17;1.07;;;19.70;99.90;;;;;;5116403;28;20447;-88
2023/08/30 11:21:58;;;;;;;2.47;1.70;;;19.40;99.90;;;;;;5116480;28;20863;-87
2023/08/30 11:24:26;;;;;;;1.43;1.33;;;19.40;99.90;;;;;;5115963;28;20478;-87
2023/08/30 11:26:55;;;;;;;1.37;1.23;;;19.40;99.90;;;;;;5116559;28;20831;-87
2023/08/30 11:29:22;;;;;;;1.30;1.20;;;19.50;99.90;;;;;;5116446;28;20450;-87
2023/08/30 11:31:50;;;;;;;0.83;0.83;;;19.50;99.90;;;;;;5116229;28;20496;-87
2023/08/30 11:34:20;;;;;;;0.90;0.90;;;19.60;99.90;;;;;;5116203;28;20464;-87
2023/08/30 11:36:47;;;;;;;0.87;0.87;;;19.40;99.90;;;;;;5116298;28;20469;-86
2023/08/30 11:39:14;;;;;;;1.30;0.80;;;19.20;99.90;;;;;;5116160;28;20438;-87
2023/08/30 11:41:43;;;;;;;0.87;0.87;;;18.90;99.90;;;;;;5115417;28;20542;-87
2023/08/30 11:44:10;;;;;;;1.83;0.73;;;18.40;99.90;;;;;;5115481;28;20477;-85
2023/08/30 11:46:37;;;;;;;0.83;0.83;;;17.90;99.90;;;;;;5115640;28;20462;-84
2023/08/30 11:49:04;;;;;;;1.27;1.07;;;17.30;99.90;;;;;;5115656;28;20447;-85
2023/08/30 11:51:32;;;;;;;4.07;1.50;;;16.90;99.90;;;;;;5115634;27;20439;-84
2023/08/30 11:54:02;;;;;;;1.00;0.90;;;16.40;99.90;;;;;;5115559;28;20446;-84
2023/08/30 11:56:29;;;;;;;1.93;1.20;;;15.90;99.90;;;;;;5115594;28;20459;-85
2023/08/30 11:58:57;;;;;;;1.30;1.20;;;15.70;99.90;;;;;;5115619;28;20423;-85
2023/08/30 12:01:24;;;;;;;1.67;1.57;;;15.60;99.90;;;;;;5115252;28;20453;-86
2023/08/30 12:03:51;;;;;;;2.83;1.43;;;15.40;99.90;;;;;;5115533;28;20499;-87
2023/08/30 12:06:18;;;;;;;1.57;1.47;;;15.40;99.90;;;;;;5115740;28;20458;-87
2023/08/30 12:08:45;;;;;;;2.27;2.07;;;15.30;99.90;;;;;;5115426;28;20454;-87
2023/08/30 12:11:20;;;;;;;1.57;1.37;;;15.30;99.90;;;;;;5115386;28;20439;-87
2023/08/30 12:13:47;;;;;;;1.20;1.13;;;15.20;99.90;;;;;;5115539;28;20431;-87
2023/08/30 12:16:20;;;;;;;2.10;1.83;;;15.10;99.90;;;;;;5115624;27;20979;-87
2023/08/30 12:18:47;;;;;;;4.73;1.80;;;15.00;99.90;;;;;;5115547;28;20424;-87
2023/08/30 12:21:15;;;;;;;1.37;1.17;;;15.00;99.90;;;;;;5115844;28;20920;-86
2023/08/30 12:23:42;;;;;;;1.50;1.40;;;15.00;99.90;;;;;;5115192;27;20466;-86
2023/08/30 12:26:10;;;;;;;2.60;1.40;;;15.10;99.90;;;;;;5115320;27;21022;-85
2023/08/30 12:28:37;;;;;;;1.73;1.63;;;15.20;99.90;;;;;;5114660;28;20443;-85
2023/08/30 12:31:05;;;;;;;1.30;1.20;;;15.20;99.90;;;;;;5114812;28;20443;-85
2023/08/30 12:33:34;;;;;;;3.23;1.83;;;15.20;99.90;;;;;;5114806;28;20430;-85
2023/08/30 12:36:01;;;;;;;2.80;1.63;;;15.20;99.90;;;;;;5114432;28;20463;-84
2023/08/30 12:38:28;;;;;;;1.90;1.80;;;15.10;99.90;;;;;;5114610;28;20451;-85
2023/08/30 12:40:56;;;;;;;1.37;1.27;;;15.20;99.90;;;;;;5114626;28;20443;-84
2023/08/30 12:43:23;;;;;;;1.20;1.10;;;15.10;99.90;;;;;;5114691;28;20481;-84
2023/08/30 12:45:51;;;;;;;1.83;1.23;;;15.10;99.90;;;;;;5114461;28;20455;-84
2023/08/30 12:48:19;;;;;;;3.60;1.83;;;15.10;99.90;;;;;;5114397;28;20438;-83
2023/08/30 12:50:48;;;;;;;1.60;1.03;;;15.30;99.90;;;;;;5114483;28;20427;-84